createdAt,value
2022-12-14T00:00:05.739Z,62.60
2022-12-14T00:01:05.760Z,60.90
2022-12-14T00:02:05.836Z,62.49
2022-12-14T00:03:05.834Z,58.88
2022-12-14T00:04:05.702Z,61.32
2022-12-14T00:05:05.688Z,63.24
2022-12-14T00:06:05.676Z,61.32
2022-12-14T00:07:05.665Z,61.85
2022-12-14T00:08:05.657Z,61.75
2022-12-14T00:09:05.645Z,63.24
2022-12-14T00:10:05.634Z,64.01
2022-12-14T00:11:05.624Z,64.65
2022-12-14T00:12:05.617Z,67.73
2022-12-14T00:13:05.605Z,64.33
2022-12-14T00:14:05.595Z,66.03
2022-12-14T00:15:05.606Z,66.46
2022-12-14T00:16:05.622Z,67.44
2022-12-14T00:17:05.561Z,71.38
2022-12-14T00:18:05.552Z,68.72
2022-12-14T00:19:05.697Z,70.53
2022-12-14T00:20:05.528Z,72.87
2022-12-14T00:21:05.525Z,72.44
2022-12-14T00:22:05.611Z,72.27
2022-12-14T00:23:05.498Z,70.88
2022-12-14T00:24:05.493Z,68.40
2022-12-14T00:25:05.480Z,66.27
2022-12-14T00:26:05.515Z,65.31
2022-12-14T00:27:05.457Z,64.25
2022-12-14T00:28:05.446Z,64.89
2022-12-14T00:29:05.436Z,65.64
2022-12-14T00:30:05.424Z,65.64
2022-12-14T00:31:05.518Z,64.89
2022-12-14T00:32:05.403Z,63.40
2022-12-14T00:33:05.392Z,61.59
2022-12-14T00:34:05.382Z,61.17
2022-12-14T00:35:05.370Z,60.42
2022-12-14T00:36:05.364Z,62.76
2022-12-14T00:37:05.350Z,61.70
2022-12-14T00:38:05.339Z,63.08
2022-12-14T00:39:05.325Z,62.34
2022-12-14T00:40:05.321Z,61.49
2022-12-14T00:41:05.315Z,60.96
2022-12-14T00:42:05.299Z,60.42
2022-12-14T00:43:05.284Z,60.74
2022-12-14T00:44:05.278Z,60.85
2022-12-14T00:45:05.265Z,60.10
2022-12-14T00:46:05.494Z,60.53
2022-12-14T00:47:05.273Z,58.51
2022-12-14T00:48:05.236Z,59.57
2022-12-14T00:49:05.224Z,58.61
2022-12-14T00:50:05.213Z,60.10
2022-12-14T00:51:05.205Z,59.04
2022-12-14T00:52:05.191Z,58.72
2022-12-14T00:53:05.183Z,59.04
2022-12-14T00:54:05.169Z,58.29
2022-12-14T00:55:05.159Z,62.98
2022-12-14T00:56:05.149Z,67.69
2022-12-14T00:57:05.136Z,69.71
2022-12-14T00:58:05.128Z,70.67
2022-12-14T00:59:05.117Z,72.61
2022-12-14T01:00:05.106Z,72.94
2022-12-14T01:01:05.093Z,72.30
2022-12-14T01:02:05.192Z,71.55
2022-12-14T01:03:05.094Z,71.34
2022-12-14T01:04:05.133Z,72.83
2022-12-14T01:05:05.055Z,72.40
2022-12-14T01:06:05.046Z,73.07
2022-12-14T01:07:05.031Z,74.24
2022-12-14T01:08:05.023Z,75.20
2022-12-14T01:09:05.158Z,75.31
2022-12-14T01:10:05.001Z,76.16
2022-12-14T01:11:05.087Z,74.67
2022-12-14T01:12:04.979Z,75.10
2022-12-14T01:13:04.971Z,74.88
2022-12-14T01:14:04.955Z,74.03
2022-12-14T01:15:05.009Z,73.61
2022-12-14T01:16:05.003Z,73.07
2022-12-14T01:17:04.937Z,73.71
2022-12-14T01:18:04.925Z,74.88
2022-12-14T01:19:04.927Z,76.06
2022-12-14T01:20:04.892Z,76.59
2022-12-14T01:21:04.885Z,77.15
2022-12-14T01:22:04.872Z,78.11
2022-12-14T01:23:04.860Z,79.18
2022-12-14T01:24:04.852Z,80.04
2022-12-14T01:25:04.840Z,78.86
2022-12-14T01:26:04.832Z,76.51
2022-12-14T01:27:04.820Z,73.85
2022-12-14T01:28:04.812Z,71.26
2022-12-14T01:29:04.803Z,69.56
2022-12-14T01:30:04.856Z,67.96
2022-12-14T01:31:04.880Z,66.97
2022-12-14T01:32:04.784Z,65.91
2022-12-14T01:33:04.777Z,69.64
2022-12-14T01:34:04.759Z,74.35
2022-12-14T01:35:04.768Z,76.27
2022-12-14T01:36:04.722Z,77.33
2022-12-14T01:37:04.712Z,76.84
2022-12-14T01:38:04.701Z,78.01
2022-12-14T01:39:04.690Z,77.80
2022-12-14T01:40:04.680Z,78.54
2022-12-14T01:41:04.667Z,77.90
2022-12-14T01:42:04.720Z,78.11
2022-12-14T01:43:04.648Z,80.57
2022-12-14T01:44:04.640Z,78.22
2022-12-14T01:45:04.626Z,79.96
2022-12-14T01:46:04.711Z,79.86
2022-12-14T01:47:10.486Z,79.53
2022-12-14T01:48:05.627Z,81.03
2022-12-14T01:49:04.584Z,79.32
2022-12-14T01:50:04.573Z,80.18
2022-12-14T01:51:04.584Z,82.42
2022-12-14T01:52:04.554Z,80.39
2022-12-14T01:53:04.544Z,80.39
2022-12-14T01:54:04.537Z,81.67
2022-12-14T01:55:04.568Z,83.06
2022-12-14T01:56:04.512Z,83.84
2022-12-14T01:57:04.500Z,84.16
2022-12-14T01:58:04.490Z,83.95
2022-12-14T01:59:04.477Z,80.85
2022-12-14T02:00:07.432Z,81.71
2022-12-14T02:01:04.457Z,81.38
2022-12-14T02:02:04.606Z,81.92
2022-12-14T02:03:04.507Z,82.98
2022-12-14T02:04:04.430Z,82.56
2022-12-14T02:05:04.430Z,80.85
2022-12-14T02:06:04.412Z,80.32
2022-12-14T02:07:04.423Z,81.71
2022-12-14T02:08:04.386Z,80.10
2022-12-14T02:09:04.378Z,80.85
2022-12-14T02:10:04.368Z,82.13
2022-12-14T02:11:04.357Z,83.31
2022-12-14T02:12:04.355Z,83.84
2022-12-14T02:13:04.342Z,84.41
2022-12-14T02:14:04.320Z,84.84
2022-12-14T02:15:04.314Z,82.49
2022-12-14T02:16:04.349Z,81.38
2022-12-14T02:17:04.289Z,79.79
2022-12-14T02:18:04.282Z,79.57
2022-12-14T02:19:04.522Z,80.57
2022-12-14T02:20:04.258Z,80.53
2022-12-14T02:21:04.251Z,82.77
2022-12-14T02:22:04.238Z,81.21
2022-12-14T02:23:04.250Z,82.28
2022-12-14T02:24:04.217Z,82.38
2022-12-14T02:25:04.205Z,82.06
2022-12-14T02:26:04.201Z,82.70
2022-12-14T02:27:04.184Z,82.49
2022-12-14T02:28:04.575Z,81.32
2022-12-14T02:29:04.163Z,83.23
2022-12-14T02:30:04.157Z,83.98
2022-12-14T02:31:04.193Z,83.13
2022-12-14T02:32:04.133Z,85.90
2022-12-14T02:33:04.122Z,84.94
2022-12-14T02:34:04.113Z,84.09
2022-12-14T02:35:04.108Z,83.02
2022-12-14T02:36:04.100Z,82.28
2022-12-14T02:37:04.079Z,80.35
2022-12-14T02:38:04.070Z,80.68
2022-12-14T02:39:04.080Z,80.25
2022-12-14T02:40:04.048Z,81.85
2022-12-14T02:41:04.037Z,81.42
2022-12-14T02:42:04.028Z,80.46
2022-12-14T02:43:04.018Z,81.96
2022-12-14T02:44:04.012Z,81.96
2022-12-14T02:45:03.996Z,84.63
2022-12-14T02:46:03.988Z,81.21
2022-12-14T02:47:04.064Z,80.99
2022-12-14T02:48:03.966Z,80.04
2022-12-14T02:49:03.951Z,81.53
2022-12-14T02:50:03.941Z,84.09
2022-12-14T02:51:03.933Z,85.80
2022-12-14T02:52:03.927Z,84.41
2022-12-14T02:53:03.913Z,86.01
2022-12-14T02:54:03.903Z,88.72
2022-12-14T02:55:03.913Z,87.01
2022-12-14T02:56:03.880Z,88.18
2022-12-14T02:57:03.870Z,89.57
2022-12-14T02:58:03.857Z,91.53
2022-12-14T02:59:03.851Z,90.79
2022-12-14T03:00:03.838Z,90.04
2022-12-14T03:01:03.930Z,89.83
2022-12-14T03:02:03.959Z,91.75
2022-12-14T03:03:03.860Z,91.00
2022-12-14T03:04:03.798Z,89.72
2022-12-14T03:05:03.787Z,90.68
2022-12-14T03:06:03.774Z,90.15
2022-12-14T03:07:03.775Z,89.51
2022-12-14T03:08:03.751Z,88.37
2022-12-14T03:09:03.751Z,88.54
2022-12-14T03:10:03.731Z,88.33
2022-12-14T03:11:03.938Z,86.19
2022-12-14T03:12:03.713Z,82.78
2022-12-14T03:13:03.700Z,82.31
2022-12-14T03:14:03.687Z,84.98
2022-12-14T03:15:03.679Z,84.77
2022-12-14T03:16:03.701Z,84.81
2022-12-14T03:17:03.658Z,84.88
2022-12-14T03:18:03.645Z,82.63
2022-12-14T03:19:03.637Z,82.63
2022-12-14T03:20:03.627Z,81.88
2022-12-14T03:21:03.615Z,81.67
2022-12-14T03:22:03.605Z,82.10
2022-12-14T03:23:03.596Z,81.03
2022-12-14T03:24:03.589Z,81.88
2022-12-14T03:25:03.589Z,82.74
2022-12-14T03:26:03.567Z,82.10
2022-12-14T03:27:03.578Z,83.17
2022-12-14T03:28:03.540Z,82.53
2022-12-14T03:29:03.532Z,84.55
2022-12-14T03:30:03.519Z,85.30
2022-12-14T03:31:03.517Z,82.95
2022-12-14T03:32:03.500Z,83.81
2022-12-14T03:33:03.488Z,83.70
2022-12-14T03:34:03.478Z,83.27
2022-12-14T03:35:03.468Z,83.27
2022-12-14T03:36:03.454Z,83.27
2022-12-14T03:37:03.451Z,83.48
2022-12-14T03:38:03.435Z,83.70
2022-12-14T03:39:03.426Z,83.27
2022-12-14T03:40:03.412Z,82.63
2022-12-14T03:41:03.403Z,86.30
2022-12-14T03:42:03.390Z,84.81
2022-12-14T03:43:03.410Z,84.17
2022-12-14T03:44:03.370Z,86.73
2022-12-14T03:45:03.360Z,84.70
2022-12-14T03:46:03.397Z,82.53
2022-12-14T03:47:03.341Z,84.91
2022-12-14T03:48:03.327Z,84.59
2022-12-14T03:49:03.318Z,84.27
2022-12-14T03:50:03.308Z,83.10
2022-12-14T03:51:03.299Z,84.27
2022-12-14T03:52:03.285Z,80.60
2022-12-14T03:53:03.274Z,83.81
2022-12-14T03:54:03.264Z,81.39
2022-12-14T03:55:03.258Z,80.18
2022-12-14T03:56:03.244Z,79.64
2022-12-14T03:57:03.236Z,83.20
2022-12-14T03:58:03.221Z,82.56
2022-12-14T03:59:03.236Z,84.06
2022-12-14T04:00:03.199Z,85.55
2022-12-14T04:01:03.252Z,85.66
2022-12-14T04:02:03.304Z,85.24
2022-12-14T04:03:03.238Z,84.48
2022-12-14T04:04:03.163Z,82.78
2022-12-14T04:05:03.155Z,82.99
2022-12-14T04:06:03.138Z,83.10
2022-12-14T04:07:03.126Z,84.48
2022-12-14T04:08:03.114Z,85.13
2022-12-14T04:09:03.112Z,85.98
2022-12-14T04:10:03.103Z,86.83
2022-12-14T04:11:03.084Z,87.84
2022-12-14T04:12:03.074Z,88.79
2022-12-14T04:13:03.064Z,89.87
2022-12-14T04:14:03.051Z,89.44
2022-12-14T04:15:03.093Z,89.76
2022-12-14T04:16:03.041Z,90.87
2022-12-14T04:17:03.074Z,91.30
2022-12-14T04:18:03.033Z,90.97
2022-12-14T04:19:03.017Z,92.04
2022-12-14T04:20:03.020Z,93.15
2022-12-14T04:21:02.987Z,90.97
2022-12-14T04:22:02.963Z,89.48
2022-12-14T04:23:02.959Z,85.10
2022-12-14T04:24:02.945Z,85.38
2022-12-14T04:25:02.939Z,85.16
2022-12-14T04:26:02.924Z,84.09
2022-12-14T04:27:02.916Z,85.16
2022-12-14T04:28:02.905Z,87.51
2022-12-14T04:29:02.896Z,87.77
2022-12-14T04:30:02.879Z,89.26
2022-12-14T04:31:02.898Z,90.76
2022-12-14T04:32:02.951Z,90.44
2022-12-14T04:33:02.849Z,92.47
2022-12-14T04:34:02.847Z,91.87
2022-12-14T04:35:02.833Z,91.55
2022-12-14T04:36:02.824Z,92.30
2022-12-14T04:37:02.811Z,92.94
2022-12-14T04:38:02.797Z,92.30
2022-12-14T04:39:02.792Z,91.23
2022-12-14T04:40:02.776Z,91.87
2022-12-14T04:41:02.766Z,89.31
2022-12-14T04:42:02.757Z,86.95
2022-12-14T04:43:02.752Z,84.77
2022-12-14T04:44:02.736Z,83.92
2022-12-14T04:45:02.725Z,85.20
2022-12-14T04:46:02.797Z,86.16
2022-12-14T04:47:02.729Z,85.20
2022-12-14T04:48:02.692Z,84.34
2022-12-14T04:49:02.685Z,87.23
2022-12-14T04:50:02.672Z,86.70
2022-12-14T04:51:02.665Z,87.55
2022-12-14T04:52:05.488Z,87.77
2022-12-14T04:53:02.659Z,91.23
2022-12-14T04:54:02.632Z,91.12
2022-12-14T04:55:02.622Z,90.37
2022-12-14T04:56:02.610Z,91.55
2022-12-14T04:57:02.598Z,91.02
2022-12-14T04:58:02.588Z,89.95
2022-12-14T04:59:02.579Z,90.26
2022-12-14T05:00:02.580Z,91.02
2022-12-14T05:01:02.621Z,91.34
2022-12-14T05:02:02.860Z,91.34
2022-12-14T05:03:02.605Z,92.41
2022-12-14T05:04:02.525Z,91.66
2022-12-14T05:05:02.516Z,90.48
2022-12-14T05:06:02.509Z,91.34
2022-12-14T05:07:02.495Z,89.31
2022-12-14T05:08:02.486Z,86.74
2022-12-14T05:09:02.473Z,86.41
2022-12-14T05:10:02.462Z,88.87
2022-12-14T05:11:22.137Z,88.13
2022-12-14T05:12:03.467Z,88.77
2022-12-14T05:13:02.434Z,90.26
2022-12-14T05:14:02.422Z,89.31
2022-12-14T05:15:02.424Z,87.49
2022-12-14T05:16:02.401Z,89.62
2022-12-14T05:17:07.968Z,91.87
2022-12-14T05:18:02.379Z,92.02
2022-12-14T05:19:02.494Z,90.26
2022-12-14T05:20:02.359Z,90.48
2022-12-14T05:21:02.348Z,92.66
2022-12-14T05:22:02.339Z,91.59
2022-12-14T05:23:02.331Z,92.02
2022-12-14T05:24:02.317Z,92.77
2022-12-14T05:25:02.309Z,90.95
2022-12-14T05:26:02.296Z,89.88
2022-12-14T05:27:02.288Z,87.70
2022-12-14T05:28:02.276Z,85.67
2022-12-14T05:29:02.267Z,85.56
2022-12-14T05:30:02.254Z,82.96
2022-12-14T05:31:02.315Z,81.88
2022-12-14T05:32:02.232Z,80.82
2022-12-14T05:33:02.223Z,80.39
2022-12-14T05:34:02.213Z,79.96
2022-12-14T05:35:02.228Z,84.34
2022-12-14T05:36:02.192Z,87.81
2022-12-14T05:37:02.187Z,89.95
2022-12-14T05:38:02.171Z,90.59
2022-12-14T05:39:02.163Z,91.38
2022-12-14T05:40:02.152Z,92.66
2022-12-14T05:41:02.142Z,93.95
2022-12-14T05:42:02.129Z,92.55
2022-12-14T05:43:02.121Z,93.30
2022-12-14T05:44:02.110Z,92.55
2022-12-14T05:45:02.100Z,91.63
2022-12-14T05:46:02.111Z,89.56
2022-12-14T05:47:02.081Z,89.77
2022-12-14T05:48:02.070Z,86.99
2022-12-14T05:49:02.057Z,87.10
2022-12-14T05:50:02.047Z,87.31
2022-12-14T05:51:02.061Z,85.38
2022-12-14T05:52:02.028Z,87.20
2022-12-14T05:53:02.018Z,84.64
2022-12-14T05:54:02.005Z,85.17
2022-12-14T05:55:04.399Z,83.95
2022-12-14T05:56:01.984Z,83.10
2022-12-14T05:57:01.974Z,82.57
2022-12-14T05:58:01.961Z,84.38
2022-12-14T05:59:01.985Z,83.53
2022-12-14T06:00:01.965Z,82.24
2022-12-14T06:01:02.135Z,83.10
2022-12-14T06:02:02.120Z,86.95
2022-12-14T06:03:01.994Z,89.03
2022-12-14T06:04:02.015Z,89.88
2022-12-14T06:05:01.899Z,89.67
2022-12-14T06:06:01.881Z,90.31
2022-12-14T06:07:01.899Z,92.06
2022-12-14T06:08:01.860Z,90.56
2022-12-14T06:09:01.857Z,90.45
2022-12-14T06:10:01.838Z,90.34
2022-12-14T06:11:01.832Z,90.78
2022-12-14T06:12:01.827Z,92.70
2022-12-14T06:13:01.805Z,93.66
2022-12-14T06:14:01.819Z,93.49
2022-12-14T06:15:01.788Z,94.03
2022-12-14T06:16:01.840Z,94.24
2022-12-14T06:17:01.768Z,94.46
2022-12-14T06:18:01.756Z,94.67
2022-12-14T06:19:01.744Z,94.78
2022-12-14T06:20:01.741Z,95.68
2022-12-14T06:21:01.725Z,95.47
2022-12-14T06:22:01.716Z,95.04
2022-12-14T06:23:01.725Z,94.18
2022-12-14T06:24:01.690Z,93.75
2022-12-14T06:25:01.684Z,94.60
2022-12-14T06:26:01.670Z,92.36
2022-12-14T06:27:01.661Z,92.79
2022-12-14T06:28:01.647Z,94.07
2022-12-14T06:29:01.640Z,94.39
2022-12-14T06:30:01.629Z,93.43
2022-12-14T06:31:01.642Z,92.53
2022-12-14T06:32:01.608Z,93.07
2022-12-14T06:33:01.600Z,93.28
2022-12-14T06:34:01.587Z,93.85
2022-12-14T06:35:01.585Z,93.11
2022-12-14T06:36:01.565Z,92.25
2022-12-14T06:37:01.560Z,93.96
2022-12-14T06:38:01.560Z,90.92
2022-12-14T06:39:01.665Z,91.67
2022-12-14T06:40:01.525Z,92.10
2022-12-14T06:41:01.516Z,89.32
2022-12-14T06:42:01.503Z,90.60
2022-12-14T06:43:01.493Z,88.24
2022-12-14T06:44:01.485Z,87.88
2022-12-14T06:45:01.476Z,86.17
2022-12-14T06:46:01.508Z,85.53
2022-12-14T06:47:01.530Z,83.07
2022-12-14T06:48:01.441Z,82.28
2022-12-14T06:49:01.433Z,84.85
2022-12-14T06:50:01.420Z,87.99
2022-12-14T06:51:01.412Z,89.49
2022-12-14T06:52:01.401Z,88.74
2022-12-14T06:53:01.395Z,88.21
2022-12-14T06:54:01.380Z,88.74
2022-12-14T06:55:01.394Z,90.56
2022-12-14T06:56:01.360Z,89.70
2022-12-14T06:57:01.348Z,90.56
2022-12-14T06:58:01.338Z,89.06
2022-12-14T06:59:01.330Z,86.07
2022-12-14T07:00:01.326Z,85.96
2022-12-14T07:01:01.309Z,84.35
2022-12-14T07:02:01.462Z,86.07
2022-12-14T07:03:01.473Z,87.56
2022-12-14T07:04:01.278Z,85.96
2022-12-14T07:05:01.271Z,85.60
2022-12-14T07:06:01.258Z,83.14
2022-12-14T07:07:01.244Z,81.10
2022-12-14T07:08:01.236Z,79.93
2022-12-14T07:09:01.228Z,80.25
2022-12-14T07:10:01.216Z,83.67
2022-12-14T07:11:02.589Z,84.64
2022-12-14T07:12:01.201Z,85.60
2022-12-14T07:13:01.185Z,85.49
2022-12-14T07:14:01.176Z,86.46
2022-12-14T07:15:01.164Z,86.24
2022-12-14T07:16:01.194Z,87.35
2022-12-14T07:17:01.142Z,87.67
2022-12-14T07:18:01.134Z,85.00
2022-12-14T07:19:01.122Z,82.07
2022-12-14T07:20:01.113Z,83.89
2022-12-14T07:21:01.104Z,86.07
2022-12-14T07:22:01.092Z,88.64
2022-12-14T07:23:01.080Z,88.53
2022-12-14T07:24:01.083Z,89.81
2022-12-14T07:25:01.060Z,90.24
2022-12-14T07:26:01.050Z,88.95
2022-12-14T07:27:01.064Z,88.64
2022-12-14T07:28:01.030Z,89.39
2022-12-14T07:29:01.020Z,89.92
2022-12-14T07:30:01.017Z,88.64
2022-12-14T07:31:01.033Z,88.42
2022-12-14T07:32:00.991Z,85.85
2022-12-14T07:33:00.978Z,85.85
2022-12-14T07:34:00.971Z,84.35
2022-12-14T07:35:00.961Z,81.53
2022-12-14T07:36:00.947Z,85.06
2022-12-14T07:37:00.937Z,84.46
2022-12-14T07:38:00.926Z,85.17
2022-12-14T07:39:00.923Z,86.92
2022-12-14T07:40:00.902Z,85.71
2022-12-14T07:41:00.896Z,88.10
2022-12-14T07:42:00.896Z,88.95
2022-12-14T07:43:00.900Z,88.95
2022-12-14T07:44:01.034Z,88.85
2022-12-14T07:45:00.852Z,89.70
2022-12-14T07:46:00.886Z,87.99
2022-12-14T07:47:00.830Z,86.39
2022-12-14T07:48:00.822Z,84.46
2022-12-14T07:49:00.817Z,82.71
2022-12-14T07:50:00.809Z,80.89
2022-12-14T07:51:00.789Z,83.14
2022-12-14T07:52:00.780Z,81.96
2022-12-14T07:53:00.770Z,79.50
2022-12-14T07:54:00.759Z,80.96
2022-12-14T07:55:00.755Z,81.18
2022-12-14T07:56:00.741Z,78.82
2022-12-14T07:57:00.736Z,77.75
2022-12-14T07:58:00.718Z,77.86
2022-12-14T07:59:00.729Z,77.00
2022-12-14T08:00:00.698Z,76.90
2022-12-14T08:01:00.784Z,76.26
2022-12-14T08:02:00.972Z,77.33
2022-12-14T08:03:00.681Z,77.40
2022-12-14T08:04:00.653Z,77.93
2022-12-14T08:05:00.726Z,81.82
2022-12-14T08:06:00.633Z,82.46
2022-12-14T08:07:00.622Z,84.28
2022-12-14T08:08:00.613Z,83.31
2022-12-14T08:09:00.604Z,81.60
2022-12-14T08:10:00.590Z,80.00
2022-12-14T08:11:00.582Z,80.64
2022-12-14T08:12:00.575Z,80.64
2022-12-14T08:13:00.615Z,80.43
2022-12-14T08:14:00.551Z,79.14
2022-12-14T08:15:00.582Z,77.29
2022-12-14T08:16:00.573Z,76.97
2022-12-14T08:17:00.525Z,79.22
2022-12-14T08:18:00.510Z,79.86
2022-12-14T08:19:00.502Z,83.49
2022-12-14T08:20:00.496Z,84.28
2022-12-14T08:21:00.476Z,86.41
2022-12-14T08:22:00.468Z,85.99
2022-12-14T08:23:00.463Z,85.67
2022-12-14T08:24:00.453Z,85.24
2022-12-14T08:25:00.433Z,85.03
2022-12-14T08:26:00.424Z,84.70
2022-12-14T08:27:00.414Z,85.46
2022-12-14T08:28:00.404Z,85.13
2022-12-14T08:29:00.394Z,84.77
2022-12-14T08:30:00.383Z,84.70
2022-12-14T08:31:00.472Z,83.21
2022-12-14T08:32:00.360Z,82.96
2022-12-14T08:33:00.354Z,83.70
2022-12-14T08:34:00.341Z,81.88
2022-12-14T08:35:00.328Z,81.88
2022-12-14T08:36:00.318Z,83.49
2022-12-14T08:37:00.306Z,83.17
2022-12-14T08:38:00.298Z,84.56
2022-12-14T08:39:00.287Z,82.75
2022-12-14T08:40:00.517Z,78.25
2022-12-14T08:41:00.267Z,78.64
2022-12-14T08:42:00.258Z,77.15
2022-12-14T08:43:00.258Z,76.72
2022-12-14T08:44:00.238Z,76.19
2022-12-14T08:45:00.246Z,73.91
2022-12-14T08:46:00.229Z,73.80
2022-12-14T08:47:00.333Z,71.88
2022-12-14T08:48:00.200Z,70.36
2022-12-14T08:49:00.185Z,70.57
2022-12-14T08:50:00.174Z,69.39
2022-12-14T08:51:00.163Z,69.39
2022-12-14T08:52:00.150Z,70.32
2022-12-14T08:53:00.140Z,66.48
2022-12-14T08:54:00.135Z,66.69
2022-12-14T08:55:00.144Z,67.76
2022-12-14T08:56:00.112Z,67.97
2022-12-14T08:57:00.101Z,66.99
2022-12-14T08:58:00.090Z,66.02
2022-12-14T08:59:00.078Z,68.16
2022-12-14T09:00:02.101Z,67.52
2022-12-14T09:01:00.117Z,67.63
2022-12-14T09:02:00.215Z,64.64
2022-12-14T09:03:00.185Z,65.03
2022-12-14T09:04:00.029Z,65.67
2022-12-14T09:05:00.016Z,64.18
2022-12-14T09:06:00.010Z,66.10
2022-12-14T09:06:59.994Z,68.02
2022-12-14T09:07:59.983Z,65.78
2022-12-14T09:08:59.974Z,65.14
2022-12-14T09:09:59.963Z,63.22
2022-12-14T09:10:59.955Z,60.10
2022-12-14T09:11:59.944Z,61.07
2022-12-14T09:12:59.934Z,59.25
2022-12-14T09:13:59.931Z,60.82
2022-12-14T09:14:59.909Z,62.63
2022-12-14T09:16:00.138Z,63.91
2022-12-14T09:16:59.893Z,64.26
2022-12-14T09:17:59.879Z,64.47
2022-12-14T09:18:59.868Z,64.55
2022-12-14T09:19:59.856Z,58.91
2022-12-14T09:20:59.845Z,57.73
2022-12-14T09:21:59.918Z,55.36
2022-12-14T09:23:00.076Z,53.34
2022-12-14T09:24:00.219Z,53.32
2022-12-14T09:24:59.808Z,52.68
2022-12-14T09:25:59.793Z,50.55
2022-12-14T09:26:59.785Z,48.19
2022-12-14T09:27:59.773Z,47.87
2022-12-14T09:28:59.762Z,47.23
2022-12-14T09:29:59.751Z,47.74
2022-12-14T09:30:59.739Z,47.64
2022-12-14T09:31:59.849Z,48.49
2022-12-14T09:32:59.718Z,47.64
2022-12-14T09:33:59.712Z,49.55
2022-12-14T09:34:59.703Z,50.61
2022-12-14T09:35:59.694Z,45.29
2022-12-14T09:36:59.676Z,46.98
2022-12-14T09:37:59.676Z,46.87
2022-12-14T09:38:59.705Z,46.44
2022-12-14T09:39:59.647Z,44.40
2022-12-14T09:40:59.633Z,38.42
2022-12-14T09:42:01.234Z,37.85
2022-12-14T09:42:59.613Z,36.54
2022-12-14T09:43:59.604Z,42.39
2022-12-14T09:44:59.590Z,47.30
2022-12-14T09:45:59.625Z,53.34
2022-12-14T09:46:59.572Z,56.12
2022-12-14T09:47:59.564Z,67.00
2022-12-14T09:48:59.549Z,74.72
2022-12-14T09:49:59.541Z,80.85
2022-12-14T09:50:59.573Z,84.48
2022-12-14T09:51:59.520Z,83.50
2022-12-14T09:52:59.505Z,93.11
2022-12-14T09:54:02.660Z,92.86
2022-12-14T09:54:59.489Z,96.94
2022-12-14T09:55:59.480Z,99.41
2022-12-14T09:56:59.470Z,99.99
2022-12-14T09:57:59.462Z,99.99
2022-12-14T09:58:59.442Z,99.99
2022-12-14T09:59:59.450Z,99.99
2022-12-14T10:00:59.474Z,99.99
2022-12-14T10:02:30.347Z,99.99
2022-12-14T10:03:06.256Z,99.99
2022-12-14T10:04:00.547Z,99.99
2022-12-14T10:04:59.374Z,99.99
2022-12-14T10:05:59.364Z,99.99
2022-12-14T10:06:59.356Z,99.99
2022-12-14T10:07:59.349Z,99.99
2022-12-14T10:08:59.333Z,99.99
2022-12-14T10:09:59.322Z,99.99
2022-12-14T10:10:59.429Z,99.99
2022-12-14T10:11:59.301Z,99.99
2022-12-14T10:12:59.287Z,99.99
2022-12-14T10:13:59.277Z,99.99
2022-12-14T10:14:59.268Z,99.99
2022-12-14T10:15:59.314Z,97.21
2022-12-14T10:16:59.322Z,94.09
2022-12-14T10:17:59.233Z,93.34
2022-12-14T10:19:01.061Z,90.21
2022-12-14T10:19:59.209Z,89.05
2022-12-14T10:20:59.201Z,87.82
2022-12-14T10:21:59.190Z,85.81
2022-12-14T10:22:59.176Z,83.91
2022-12-14T10:23:59.169Z,82.95
2022-12-14T10:24:59.156Z,81.19
2022-12-14T10:25:59.146Z,80.24
2022-12-14T10:26:59.134Z,79.71
2022-12-14T10:28:10.846Z,80.13
2022-12-14T10:29:01.715Z,79.39
2022-12-14T10:29:59.122Z,77.27
2022-12-14T10:30:59.093Z,78.44
2022-12-14T10:31:59.185Z,77.38
2022-12-14T10:32:59.073Z,75.40
2022-12-14T10:33:59.059Z,74.98
2022-12-14T10:34:59.048Z,73.28
2022-12-14T10:35:59.037Z,70.00
2022-12-14T10:36:59.024Z,69.15
2022-12-14T10:37:59.013Z,67.75
2022-12-14T10:38:59.007Z,66.47
2022-12-14T10:39:58.997Z,64.47
2022-12-14T10:40:58.996Z,63.51
2022-12-14T10:41:58.977Z,64.36
2022-12-14T10:42:58.982Z,65.10
2022-12-14T10:43:58.952Z,64.68
2022-12-14T10:45:23.441Z,62.35
2022-12-14T10:45:58.977Z,61.82
2022-12-14T10:46:59.011Z,60.65
2022-12-14T10:47:58.904Z,59.91
2022-12-14T10:48:58.893Z,59.17
2022-12-14T10:49:58.893Z,60.33
2022-12-14T10:50:58.881Z,58.96
2022-12-14T10:51:58.863Z,59.99
2022-12-14T10:52:58.853Z,58.40
2022-12-14T10:53:58.844Z,58.51
2022-12-14T10:54:58.833Z,59.67
2022-12-14T10:55:58.942Z,57.35
2022-12-14T10:56:58.908Z,56.92
2022-12-14T10:57:58.800Z,59.46
2022-12-14T10:58:58.792Z,58.22
2022-12-14T11:00:09.425Z,57.59
2022-12-14T11:00:59.873Z,55.99
2022-12-14T11:01:58.987Z,55.26
2022-12-14T11:02:58.977Z,55.15
2022-12-14T11:03:58.752Z,54.30
2022-12-14T11:04:58.734Z,53.03
2022-12-14T11:05:58.715Z,52.72
2022-12-14T11:06:58.714Z,51.55
2022-12-14T11:07:58.700Z,50.26
2022-12-14T11:08:58.685Z,47.30
2022-12-14T11:09:58.673Z,46.64
2022-12-14T11:10:58.664Z,47.06
2022-12-14T11:11:58.675Z,45.48
2022-12-14T11:12:58.641Z,45.37
2022-12-14T11:13:58.630Z,47.27
2022-12-14T11:14:58.617Z,47.59
2022-12-14T11:15:58.611Z,48.22
2022-12-14T11:16:58.799Z,49.49
2022-12-14T11:17:58.954Z,49.20
2022-12-14T11:19:02.544Z,46.64
2022-12-14T11:19:58.569Z,46.95
2022-12-14T11:20:58.558Z,45.58
2022-12-14T11:21:58.561Z,46.00
2022-12-14T11:22:58.538Z,45.39
2022-12-14T11:23:58.520Z,43.68
2022-12-14T11:24:58.534Z,41.67
2022-12-14T11:25:58.506Z,39.55
2022-12-14T11:26:58.495Z,41.24
2022-12-14T11:27:58.491Z,42.72
2022-12-14T11:28:58.475Z,42.94
2022-12-14T11:29:58.460Z,42.72
2022-12-14T11:30:58.508Z,45.26
2022-12-14T11:31:58.440Z,46.00
2022-12-14T11:32:58.430Z,45.79
2022-12-14T11:33:58.416Z,43.26
2022-12-14T11:34:58.410Z,43.15
2022-12-14T11:35:58.398Z,41.46
2022-12-14T11:36:58.424Z,41.67
2022-12-14T11:37:58.376Z,39.55
2022-12-14T11:38:58.367Z,35.85
2022-12-14T11:39:58.358Z,37.74
2022-12-14T11:40:58.346Z,38.16
2022-12-14T11:41:58.333Z,38.58
2022-12-14T11:42:58.320Z,39.66
2022-12-14T11:43:58.308Z,41.24
2022-12-14T11:44:58.302Z,42.41
2022-12-14T11:45:58.324Z,40.92
2022-12-14T11:46:58.316Z,39.34
2022-12-14T11:47:58.268Z,37.76
2022-12-14T11:48:58.258Z,38.49
2022-12-14T11:49:58.246Z,40.30
2022-12-14T11:50:58.236Z,38.39
2022-12-14T11:51:58.224Z,35.62
2022-12-14T11:52:58.213Z,34.78
2022-12-14T11:53:58.201Z,35.41
2022-12-14T11:54:58.221Z,32.45
2022-12-14T11:55:58.179Z,35.20
2022-12-14T11:56:58.171Z,33.40
2022-12-14T11:57:58.174Z,33.28
2022-12-14T11:58:58.152Z,34.66
2022-12-14T11:59:58.147Z,35.39
2022-12-14T12:00:58.127Z,35.82
2022-12-14T12:01:58.168Z,34.46
2022-12-14T12:02:58.204Z,33.51
2022-12-14T12:03:58.186Z,31.49
2022-12-14T12:04:58.088Z,29.48
2022-12-14T12:05:58.077Z,30.32
2022-12-14T12:07:04.249Z,29.48
2022-12-14T12:07:58.054Z,29.78
2022-12-14T12:08:58.045Z,29.68
2022-12-14T12:09:58.033Z,28.72
2022-12-14T12:11:01.938Z,29.25
2022-12-14T12:11:58.017Z,30.52
2022-12-14T12:12:58.027Z,32.64
2022-12-14T12:13:57.990Z,33.06
2022-12-14T12:14:57.980Z,30.54
2022-12-14T12:15:57.998Z,30.43
2022-12-14T12:16:57.958Z,30.10
2022-12-14T12:17:57.946Z,31.49
2022-12-14T12:18:57.945Z,28.63
2022-12-14T12:19:58.122Z,30.10
2022-12-14T12:20:58.058Z,30.74
2022-12-14T12:21:57.904Z,31.70
2022-12-14T12:22:57.893Z,31.38
2022-12-14T12:23:57.882Z,31.70
2022-12-14T12:25:24.202Z,30.96
2022-12-14T12:25:58.886Z,28.85
2022-12-14T12:26:57.860Z,24.73
2022-12-14T12:27:57.838Z,25.77
2022-12-14T12:28:57.830Z,27.46
2022-12-14T12:29:57.828Z,26.72
2022-12-14T12:30:57.868Z,26.82
2022-12-14T12:31:57.797Z,28.82
2022-12-14T12:32:57.786Z,28.09
2022-12-14T12:33:57.776Z,27.66
2022-12-14T12:35:01.410Z,28.50
2022-12-14T12:35:58.780Z,26.71
2022-12-14T12:37:25.173Z,24.80
2022-12-14T12:37:58.769Z,27.13
2022-12-14T12:38:57.720Z,27.87
2022-12-14T12:39:57.709Z,25.54
2022-12-14T12:40:57.701Z,27.97
2022-12-14T12:42:02.076Z,28.61
2022-12-14T12:42:58.705Z,28.92
2022-12-14T12:43:57.666Z,30.62
2022-12-14T12:44:57.658Z,28.94
2022-12-14T12:45:57.716Z,31.90
2022-12-14T12:47:23.764Z,31.58
2022-12-14T12:47:58.704Z,33.16
2022-12-14T12:48:57.615Z,34.33
2022-12-14T12:49:57.604Z,34.97
2022-12-14T12:50:57.591Z,32.86
2022-12-14T12:51:57.585Z,31.37